Search for airport 
image banner adimage banner ad
image banner ad

SVSA - San Antonio Del Tachira / Gral. Juan Vicente Gomez Intl

Located in San Antonio Del Tachira, Venezuela

ICAO - SVSA, IATA - SVZ

Data provided by Airmate  

General information

Coordinates: N7°50'26" W72°26'23"
Elevation is 1317 feet MSL.
 
Rated:
View ratings: [VIEW]


View others Airports in Tachira

Operational data

Open for public use
Current time UTC:
Current local time:
Weather
TAF: TAF SVSA 062200Z 0700/0800 05008KT 9999 SCT016 TX32/0619Z TN22/0608Z BECMG 0700/0704 27005KT 9000 -DZ BKN100
View NOTAMs / SUP AIP / TFR affecting this airport [VIEW]
Communications frequencies: [VIEW]

Runways:

RWY identifierQFULength (ft)Width (ft)SurfaceLDA (ft)
17164°6135131ASP
35344°6070131

Airport contact information

Address: San Antonio Del Tachira Venezuela

Satellite view of SVSA